UHBB 160530Z 20008MPS 180V240 9999 SCT033 33/18 Q1000 R18/090061 NOSIG RMK QFE735/0980
QNH:(hPa/inHg/mmHg)1000 / 29.53 / 750
QFE:(hPa/inHg/mmHg)976 / 28.83 / 732
Temperature33
Dew Point18
Visibility> 10000
Weather
Cloud CoverSCT (3300);
Transition Altitude4000 ft.
Transition LevelFL60
SQUAWK